createdAt,value
2023-02-28T00:00:46.208Z,85.74
2023-02-28T00:01:46.210Z,85.84
2023-02-28T00:02:46.133Z,85.46
2023-02-28T00:04:07.098Z,85.93
2023-02-28T00:04:46.052Z,85.93
2023-02-28T00:05:46.012Z,85.93
2023-02-28T00:06:45.996Z,85.65
2023-02-28T00:07:45.933Z,85.93
2023-02-28T00:08:45.908Z,86.03
2023-02-28T00:10:06.848Z,86.03
2023-02-28T00:10:45.814Z,85.46
2023-02-28T00:11:45.780Z,85.93
2023-02-28T00:12:45.757Z,85.93
2023-02-28T00:13:45.693Z,85.74
2023-02-28T00:14:45.649Z,85.84
2023-02-28T00:16:06.612Z,85.65
2023-02-28T00:16:45.680Z,85.84
2023-02-28T00:17:45.527Z,86.12
2023-02-28T00:18:45.505Z,86.12
2023-02-28T00:19:45.452Z,86.03
2023-02-28T00:20:45.411Z,85.74
2023-02-28T00:22:06.361Z,85.84
2023-02-28T00:22:45.330Z,86.03
2023-02-28T00:23:45.315Z,85.93
2023-02-28T00:24:45.248Z,86.12
2023-02-28T00:25:45.211Z,85.46
2023-02-28T00:26:45.172Z,86.12
2023-02-28T00:28:06.127Z,85.93
2023-02-28T00:28:45.083Z,85.74
2023-02-28T00:29:45.055Z,86.22
2023-02-28T00:30:45.038Z,86.03
2023-02-28T00:31:45.012Z,85.93
2023-02-28T00:32:44.922Z,85.84
2023-02-28T00:34:05.879Z,85.93
2023-02-28T00:34:44.844Z,86.03
2023-02-28T00:35:44.828Z,85.74
2023-02-28T00:36:44.765Z,85.93
2023-02-28T00:37:44.735Z,85.84
2023-02-28T00:38:44.700Z,86.22
2023-02-28T00:40:05.641Z,86.79
2023-02-28T00:40:44.609Z,86.46
2023-02-28T00:41:44.566Z,86.55
2023-02-28T00:42:44.516Z,86.50
2023-02-28T00:43:44.480Z,86.50
2023-02-28T00:44:44.439Z,86.46
2023-02-28T00:46:05.466Z,86.41
2023-02-28T00:46:44.356Z,86.60
2023-02-28T00:47:44.319Z,86.60
2023-02-28T00:48:44.275Z,86.83
2023-02-28T00:49:44.242Z,86.36
2023-02-28T00:50:44.196Z,86.69
2023-02-28T00:52:05.158Z,86.41
2023-02-28T00:52:44.112Z,86.46
2023-02-28T00:53:44.067Z,86.65
2023-02-28T00:54:44.035Z,86.65
2023-02-28T00:55:43.994Z,86.36
2023-02-28T00:56:43.949Z,86.46
2023-02-28T00:58:04.900Z,86.65
2023-02-28T00:58:43.866Z,86.83
2023-02-28T00:59:43.831Z,86.83
2023-02-28T01:00:43.793Z,86.74
2023-02-28T01:01:43.813Z,86.36
2023-02-28T01:02:43.703Z,86.74
2023-02-28T01:04:04.715Z,86.93
2023-02-28T01:04:43.651Z,86.93
2023-02-28T01:05:43.584Z,86.93
2023-02-28T01:06:43.541Z,86.83
2023-02-28T01:07:43.522Z,86.83
2023-02-28T01:08:43.468Z,86.83
2023-02-28T01:10:04.422Z,86.74
2023-02-28T01:10:43.391Z,86.83
2023-02-28T01:11:43.344Z,87.12
2023-02-28T01:12:43.312Z,87.12
2023-02-28T01:13:43.266Z,86.93
2023-02-28T01:14:43.222Z,86.83
2023-02-28T01:16:04.204Z,86.74
2023-02-28T01:16:43.155Z,86.93
2023-02-28T01:17:43.100Z,86.93
2023-02-28T01:18:43.059Z,87.12
2023-02-28T01:19:43.029Z,87.12
2023-02-28T01:20:42.970Z,86.93
2023-02-28T01:22:03.932Z,86.83
2023-02-28T01:22:42.898Z,86.93
2023-02-28T01:23:42.855Z,86.93
2023-02-28T01:24:42.814Z,86.93
2023-02-28T01:25:42.862Z,87.12
2023-02-28T01:26:42.740Z,86.93
2023-02-28T01:28:03.695Z,87.69
2023-02-28T01:28:42.649Z,87.40
2023-02-28T01:29:42.605Z,87.12
2023-02-28T01:30:42.763Z,87.69
2023-02-28T01:31:42.532Z,86.93
2023-02-28T01:32:42.493Z,86.93
2023-02-28T01:34:03.464Z,87.78
2023-02-28T01:34:42.406Z,87.88
2023-02-28T01:35:42.435Z,86.93
2023-02-28T01:36:42.330Z,87.88
2023-02-28T01:37:42.285Z,86.83
2023-02-28T01:38:42.255Z,87.59
2023-02-28T01:40:03.199Z,87.69
2023-02-28T01:40:42.159Z,87.69
2023-02-28T01:41:42.119Z,87.59
2023-02-28T01:42:42.078Z,87.50
2023-02-28T01:43:42.036Z,87.40
2023-02-28T01:44:41.997Z,87.50
2023-02-28T01:46:02.995Z,87.50
2023-02-28T01:46:41.989Z,87.31
2023-02-28T01:47:41.873Z,87.31
2023-02-28T01:48:41.838Z,87.40
2023-02-28T01:49:41.791Z,87.50
2023-02-28T01:50:41.777Z,87.59
2023-02-28T01:52:02.711Z,87.31
2023-02-28T01:52:41.669Z,87.40
2023-02-28T01:53:41.626Z,87.59
2023-02-28T01:54:41.587Z,87.40
2023-02-28T01:55:41.574Z,87.50
2023-02-28T01:56:41.506Z,87.98
2023-02-28T01:58:02.471Z,87.78
2023-02-28T01:58:41.424Z,87.40
2023-02-28T01:59:41.399Z,87.78
2023-02-28T02:00:41.344Z,87.50
2023-02-28T02:01:41.330Z,87.78
2023-02-28T02:02:41.303Z,87.69
2023-02-28T02:04:02.217Z,87.59
2023-02-28T02:04:41.179Z,87.88
2023-02-28T02:05:41.139Z,87.69
2023-02-28T02:06:41.094Z,87.98
2023-02-28T02:07:41.053Z,87.98
2023-02-28T02:08:41.022Z,87.78
2023-02-28T02:10:01.971Z,87.98
2023-02-28T02:10:40.936Z,87.98
2023-02-28T02:11:40.904Z,87.98
2023-02-28T02:12:40.852Z,87.98
2023-02-28T02:13:40.809Z,87.69
2023-02-28T02:14:40.772Z,87.69
2023-02-28T02:16:01.780Z,87.69
2023-02-28T02:16:40.688Z,87.98
2023-02-28T02:17:40.658Z,88.35
2023-02-28T02:18:40.616Z,88.26
2023-02-28T02:19:40.567Z,88.17
2023-02-28T02:20:40.533Z,88.35
2023-02-28T02:22:01.479Z,88.26
2023-02-28T02:22:40.443Z,88.26
2023-02-28T02:23:40.405Z,87.98
2023-02-28T02:24:40.359Z,88.07
2023-02-28T02:25:40.324Z,88.07
2023-02-28T02:26:40.282Z,88.45
2023-02-28T02:28:01.234Z,88.45
2023-02-28T02:28:40.196Z,88.07
2023-02-28T02:29:40.161Z,88.07
2023-02-28T02:30:40.114Z,88.07
2023-02-28T02:31:40.123Z,88.17
2023-02-28T02:32:40.043Z,88.07
2023-02-28T02:34:00.987Z,87.98
2023-02-28T02:34:39.953Z,88.07
2023-02-28T02:35:39.998Z,88.35
2023-02-28T02:36:39.911Z,88.35
2023-02-28T02:37:39.835Z,88.26
2023-02-28T02:38:39.788Z,88.35
2023-02-28T02:40:00.750Z,88.07
2023-02-28T02:40:39.707Z,88.45
2023-02-28T02:41:39.669Z,88.17
2023-02-28T02:42:39.646Z,88.17
2023-02-28T02:43:39.599Z,87.88
2023-02-28T02:44:39.547Z,87.98
2023-02-28T02:46:00.502Z,87.78
2023-02-28T02:46:39.486Z,87.98
2023-02-28T02:47:39.426Z,87.78
2023-02-28T02:48:39.376Z,88.07
2023-02-28T02:49:39.337Z,88.35
2023-02-28T02:50:39.312Z,88.17
2023-02-28T02:52:00.258Z,88.26
2023-02-28T02:52:39.222Z,88.26
2023-02-28T02:53:39.176Z,88.17
2023-02-28T02:54:39.135Z,88.35
2023-02-28T02:55:39.100Z,88.35
2023-02-28T02:56:39.061Z,88.35
2023-02-28T02:58:00.021Z,88.26
2023-02-28T02:58:38.970Z,88.45
2023-02-28T02:59:38.933Z,88.26
2023-02-28T03:00:38.974Z,88.17
2023-02-28T03:01:38.862Z,88.12
2023-02-28T03:02:38.820Z,88.17
2023-02-28T03:03:59.791Z,88.07
2023-02-28T03:04:38.730Z,88.17
2023-02-28T03:05:38.688Z,88.07
2023-02-28T03:06:38.647Z,88.17
2023-02-28T03:07:38.616Z,87.93
2023-02-28T03:08:38.588Z,87.98
2023-02-28T03:09:59.535Z,88.26
2023-02-28T03:10:38.478Z,88.26
2023-02-28T03:11:38.443Z,88.35
2023-02-28T03:12:38.404Z,88.35
2023-02-28T03:13:38.357Z,88.35
2023-02-28T03:14:38.318Z,88.26
2023-02-28T03:15:59.321Z,88.17
2023-02-28T03:16:38.257Z,88.17
2023-02-28T03:17:38.197Z,88.12
2023-02-28T03:18:38.150Z,88.12
2023-02-28T03:19:38.116Z,87.93
2023-02-28T03:20:38.070Z,88.21
2023-02-28T03:21:59.043Z,88.68
2023-02-28T03:22:37.987Z,88.49
2023-02-28T03:23:37.952Z,88.59
2023-02-28T03:24:37.910Z,88.49
2023-02-28T03:25:37.871Z,88.49
2023-02-28T03:26:37.832Z,88.31
2023-02-28T03:27:58.787Z,88.68
2023-02-28T03:28:37.748Z,88.49
2023-02-28T03:29:37.709Z,88.02
2023-02-28T03:30:37.666Z,88.02
2023-02-28T03:31:37.678Z,88.21
2023-02-28T03:32:37.614Z,88.12
2023-02-28T03:33:58.539Z,88.12
2023-02-28T03:34:37.499Z,88.49
2023-02-28T03:35:37.479Z,88.21
2023-02-28T03:36:37.427Z,88.31
2023-02-28T03:37:37.381Z,88.97
2023-02-28T03:38:37.335Z,88.87
2023-02-28T03:39:58.298Z,88.78
2023-02-28T03:40:37.257Z,88.49
2023-02-28T03:41:37.218Z,88.49
2023-02-28T03:42:37.169Z,88.97
2023-02-28T03:43:37.140Z,88.31
2023-02-28T03:44:37.091Z,88.31
2023-02-28T03:45:58.061Z,88.59
2023-02-28T03:46:37.003Z,88.68
2023-02-28T03:47:37.010Z,88.40
2023-02-28T03:48:36.926Z,88.21
2023-02-28T03:49:36.885Z,88.68
2023-02-28T03:50:36.844Z,88.02
2023-02-28T03:51:57.799Z,88.21
2023-02-28T03:52:36.762Z,88.12
2023-02-28T03:53:36.721Z,88.12
2023-02-28T03:54:36.680Z,88.31
2023-02-28T03:55:36.640Z,88.31
2023-02-28T03:56:36.601Z,87.84
2023-02-28T03:57:57.545Z,88.12
2023-02-28T03:58:36.533Z,87.84
2023-02-28T03:59:36.490Z,88.02
2023-02-28T04:00:36.432Z,87.84
2023-02-28T04:01:36.424Z,87.55
2023-02-28T04:02:36.354Z,87.36
2023-02-28T04:03:57.316Z,87.46
2023-02-28T04:04:36.302Z,87.55
2023-02-28T04:05:36.224Z,87.46
2023-02-28T04:06:36.191Z,87.36
2023-02-28T04:07:36.143Z,87.17
2023-02-28T04:08:36.121Z,87.46
2023-02-28T04:09:57.056Z,87.46
2023-02-28T04:10:36.018Z,87.08
2023-02-28T04:11:35.983Z,86.89
2023-02-28T04:12:35.939Z,86.70
2023-02-28T04:13:35.901Z,86.89
2023-02-28T04:14:35.859Z,86.89
2023-02-28T04:15:56.916Z,86.60
2023-02-28T04:16:36.176Z,87.08
2023-02-28T04:17:35.735Z,86.70
2023-02-28T04:18:35.693Z,86.60
2023-02-28T04:19:35.657Z,86.60
2023-02-28T04:20:35.614Z,86.32
2023-02-28T04:21:56.561Z,86.51
2023-02-28T04:22:35.527Z,86.41
2023-02-28T04:23:35.490Z,86.51
2023-02-28T04:24:35.450Z,86.04
2023-02-28T04:25:35.406Z,86.41
2023-02-28T04:26:35.369Z,85.75
2023-02-28T04:27:56.316Z,85.75
2023-02-28T04:28:35.282Z,85.94
2023-02-28T04:29:35.251Z,85.85
2023-02-28T04:30:35.189Z,85.66
2023-02-28T04:31:35.209Z,85.57
2023-02-28T04:32:35.158Z,85.94
2023-02-28T04:33:56.070Z,85.75
2023-02-28T04:34:35.032Z,86.04
2023-02-28T04:35:35.017Z,85.94
2023-02-28T04:36:34.949Z,85.47
2023-02-28T04:37:34.910Z,85.57
2023-02-28T04:38:34.868Z,85.85
2023-02-28T04:39:55.823Z,85.85
2023-02-28T04:40:34.788Z,85.75
2023-02-28T04:41:34.991Z,85.85
2023-02-28T04:42:34.706Z,85.94
2023-02-28T04:43:34.662Z,86.13
2023-02-28T04:44:34.630Z,86.13
2023-02-28T04:45:55.603Z,85.85
2023-02-28T04:46:34.546Z,85.94
2023-02-28T04:47:34.493Z,86.51
2023-02-28T04:48:34.451Z,86.32
2023-02-28T04:49:34.421Z,86.41
2023-02-28T04:50:34.365Z,86.41
2023-02-28T04:51:55.329Z,86.79
2023-02-28T04:52:34.291Z,86.32
2023-02-28T04:53:34.245Z,86.32
2023-02-28T04:54:34.203Z,86.60
2023-02-28T04:55:34.171Z,86.32
2023-02-28T04:56:34.121Z,86.51
2023-02-28T04:57:55.080Z,86.89
2023-02-28T04:58:34.038Z,86.98
2023-02-28T04:59:34.026Z,86.89
2023-02-28T05:00:33.954Z,87.08
2023-02-28T05:01:33.924Z,86.79
2023-02-28T05:02:33.876Z,87.65
2023-02-28T05:03:54.848Z,87.65
2023-02-28T05:04:33.824Z,87.65
2023-02-28T05:05:33.748Z,87.36
2023-02-28T05:06:33.714Z,87.27
2023-02-28T05:07:33.676Z,87.46
2023-02-28T05:08:33.624Z,87.55
2023-02-28T05:09:54.586Z,87.46
2023-02-28T05:10:33.546Z,87.84
2023-02-28T05:11:33.566Z,87.74
2023-02-28T05:12:33.469Z,87.84
2023-02-28T05:13:33.422Z,87.74
2023-02-28T05:14:33.377Z,87.84
2023-02-28T05:15:54.352Z,88.12
2023-02-28T05:16:33.363Z,87.93
2023-02-28T05:17:33.275Z,87.74
2023-02-28T05:18:33.277Z,88.02
2023-02-28T05:19:33.178Z,88.12
2023-02-28T05:20:33.148Z,88.12
2023-02-28T05:21:54.115Z,88.21
2023-02-28T05:22:33.052Z,88.31
2023-02-28T05:23:33.017Z,88.21
2023-02-28T05:24:32.978Z,87.93
2023-02-28T05:25:32.934Z,88.12
2023-02-28T05:26:32.883Z,88.12
2023-02-28T05:27:53.852Z,87.93
2023-02-28T05:28:32.798Z,88.40
2023-02-28T05:29:32.762Z,88.02
2023-02-28T05:30:32.721Z,88.21
2023-02-28T05:31:33.222Z,88.21
2023-02-28T05:32:32.730Z,88.49
2023-02-28T05:33:53.593Z,88.40
2023-02-28T05:34:32.547Z,88.40
2023-02-28T05:35:32.557Z,88.68
2023-02-28T05:36:32.470Z,88.59
2023-02-28T05:37:32.425Z,88.59
2023-02-28T05:38:32.393Z,88.68
2023-02-28T05:39:53.355Z,88.68
2023-02-28T05:40:32.324Z,88.78
2023-02-28T05:41:32.539Z,88.78
2023-02-28T05:42:32.227Z,88.68
2023-02-28T05:43:32.193Z,89.35
2023-02-28T05:44:32.134Z,88.78
2023-02-28T05:45:53.128Z,88.68
2023-02-28T05:46:32.065Z,89.35
2023-02-28T05:47:32.041Z,88.97
2023-02-28T05:48:31.993Z,89.25
2023-02-28T05:49:31.961Z,89.06
2023-02-28T05:50:31.906Z,89.35
2023-02-28T05:51:52.852Z,88.97
2023-02-28T05:52:31.816Z,89.25
2023-02-28T05:53:31.778Z,88.78
2023-02-28T05:54:31.731Z,88.78
2023-02-28T05:55:31.704Z,88.78
2023-02-28T05:56:31.649Z,88.78
2023-02-28T05:57:52.602Z,88.68
2023-02-28T05:58:31.765Z,88.78
2023-02-28T05:59:31.532Z,88.59
2023-02-28T06:00:31.488Z,88.97
2023-02-28T06:01:31.577Z,88.78
2023-02-28T06:02:31.445Z,88.68
2023-02-28T06:03:52.359Z,88.78
2023-02-28T06:04:32.331Z,88.68
2023-02-28T06:05:31.272Z,88.97
2023-02-28T06:06:31.236Z,88.97
2023-02-28T06:07:31.206Z,88.97
2023-02-28T06:08:31.150Z,88.87
2023-02-28T06:09:52.120Z,89.25
2023-02-28T06:10:31.072Z,89.35
2023-02-28T06:11:31.395Z,88.97
2023-02-28T06:12:30.985Z,88.78
2023-02-28T06:13:30.959Z,88.87
2023-02-28T06:14:30.901Z,88.87
2023-02-28T06:15:51.861Z,89.35
2023-02-28T06:16:30.895Z,89.06
2023-02-28T06:17:30.780Z,88.97
2023-02-28T06:18:30.760Z,89.06
2023-02-28T06:19:30.693Z,88.68
2023-02-28T06:20:30.659Z,88.87
2023-02-28T06:21:51.612Z,88.97
2023-02-28T06:22:30.578Z,88.36
2023-02-28T06:23:30.534Z,88.78
2023-02-28T06:24:30.495Z,88.78
2023-02-28T06:25:30.447Z,88.78
2023-02-28T06:26:30.414Z,88.55
2023-02-28T06:27:51.364Z,88.87
2023-02-28T06:28:30.330Z,89.35
2023-02-28T06:29:30.290Z,88.87
2023-02-28T06:30:30.246Z,88.78
2023-02-28T06:31:30.907Z,88.78
2023-02-28T06:32:30.161Z,88.55
2023-02-28T06:33:51.123Z,88.74
2023-02-28T06:34:30.074Z,88.49
2023-02-28T06:35:30.047Z,88.59
2023-02-28T06:36:30.004Z,88.59
2023-02-28T06:37:29.958Z,88.97
2023-02-28T06:38:29.913Z,88.97
2023-02-28T06:39:50.880Z,88.78
2023-02-28T06:40:29.832Z,88.64
2023-02-28T06:41:32.890Z,88.74
2023-02-28T06:42:29.757Z,89.06
2023-02-28T06:43:29.720Z,88.59
2023-02-28T06:44:29.669Z,89.40
2023-02-28T06:45:50.651Z,88.97
2023-02-28T06:46:29.609Z,88.74
2023-02-28T06:47:29.541Z,88.55
2023-02-28T06:48:29.500Z,88.31
2023-02-28T06:49:29.457Z,88.02
2023-02-28T06:50:29.416Z,88.49
2023-02-28T06:51:50.368Z,88.26
2023-02-28T06:52:29.330Z,87.84
2023-02-28T06:53:29.287Z,87.88
2023-02-28T06:54:29.263Z,88.12
2023-02-28T06:55:30.710Z,88.12
2023-02-28T06:56:29.170Z,87.84
2023-02-28T06:57:50.125Z,88.12
2023-02-28T06:58:29.086Z,88.21
2023-02-28T06:59:29.050Z,88.12
2023-02-28T07:00:29.025Z,88.12
2023-02-28T07:01:29.376Z,88.40
2023-02-28T07:02:28.925Z,88.21
2023-02-28T07:03:49.871Z,87.74
2023-02-28T07:04:28.855Z,87.46
2023-02-28T07:05:28.788Z,87.65
2023-02-28T07:06:28.747Z,87.17
2023-02-28T07:07:28.705Z,87.46
2023-02-28T07:08:28.668Z,87.74
2023-02-28T07:09:49.616Z,86.89
2023-02-28T07:10:28.582Z,86.79
2023-02-28T07:11:29.039Z,86.98
2023-02-28T07:12:28.497Z,86.79
2023-02-28T07:13:28.462Z,86.51
2023-02-28T07:14:28.419Z,86.51
2023-02-28T07:15:49.391Z,86.70
2023-02-28T07:16:28.403Z,86.51
2023-02-28T07:17:28.290Z,86.41
2023-02-28T07:18:28.249Z,86.41
2023-02-28T07:19:28.203Z,86.51
2023-02-28T07:20:28.313Z,85.57
2023-02-28T07:21:49.128Z,85.57
2023-02-28T07:22:28.081Z,85.85
2023-02-28T07:23:28.036Z,85.57
2023-02-28T07:24:27.997Z,85.38
2023-02-28T07:25:27.950Z,85.00
2023-02-28T07:26:27.916Z,85.38
2023-02-28T07:27:48.870Z,84.71
2023-02-28T07:28:27.842Z,85.00
2023-02-28T07:29:28.002Z,84.81
2023-02-28T07:30:27.799Z,85.09
2023-02-28T07:31:28.265Z,84.81
2023-02-28T07:32:27.744Z,84.71
2023-02-28T07:33:48.640Z,84.23
2023-02-28T07:34:27.590Z,84.33
2023-02-28T07:35:27.577Z,84.42
2023-02-28T07:36:27.506Z,84.05
2023-02-28T07:37:27.466Z,84.14
2023-02-28T07:38:27.423Z,83.48
2023-02-28T07:39:48.380Z,83.39
2023-02-28T07:40:27.365Z,82.82
2023-02-28T07:41:27.626Z,82.82
2023-02-28T07:42:27.269Z,83.01
2023-02-28T07:43:27.223Z,82.44
2023-02-28T07:44:27.192Z,82.53
2023-02-28T07:45:48.134Z,82.01
2023-02-28T07:46:30.160Z,81.87
2023-02-28T07:47:27.087Z,82.10
2023-02-28T07:48:27.025Z,82.20
2023-02-28T07:49:26.972Z,81.92
2023-02-28T07:50:27.277Z,81.72
2023-02-28T07:51:47.891Z,81.06
2023-02-28T07:52:26.854Z,81.15
2023-02-28T07:53:26.817Z,80.96
2023-02-28T07:54:26.769Z,80.58
2023-02-28T07:55:26.728Z,80.87
2023-02-28T07:56:26.802Z,80.40
2023-02-28T07:57:47.643Z,80.58
2023-02-28T07:58:26.608Z,81.06
2023-02-28T07:59:26.572Z,80.96
2023-02-28T08:00:26.624Z,80.30
2023-02-28T08:01:26.519Z,80.02
2023-02-28T08:02:26.464Z,80.02
2023-02-28T08:03:47.405Z,79.55
2023-02-28T08:04:26.361Z,80.21
2023-02-28T08:05:26.334Z,80.02
2023-02-28T08:06:26.280Z,79.64
2023-02-28T08:07:26.238Z,79.74
2023-02-28T08:08:26.199Z,79.64
2023-02-28T08:09:47.158Z,79.36
2023-02-28T08:10:26.181Z,79.26
2023-02-28T08:11:26.101Z,79.17
2023-02-28T08:12:26.036Z,79.55
2023-02-28T08:13:25.997Z,79.36
2023-02-28T08:14:25.952Z,79.55
2023-02-28T08:15:46.905Z,79.45
2023-02-28T08:16:25.982Z,79.64
2023-02-28T08:17:25.832Z,79.17
2023-02-28T08:18:25.801Z,79.74
2023-02-28T08:19:25.751Z,79.49
2023-02-28T08:20:25.802Z,78.92
2023-02-28T08:21:46.663Z,78.50
2023-02-28T08:22:25.631Z,78.73
2023-02-28T08:23:25.595Z,78.50
2023-02-28T08:24:25.553Z,77.97
2023-02-28T08:25:25.514Z,77.88
2023-02-28T08:26:25.471Z,78.16
2023-02-28T08:27:46.419Z,77.50
2023-02-28T08:28:27.255Z,77.03
2023-02-28T08:29:25.338Z,76.84
2023-02-28T08:30:25.380Z,77.12
2023-02-28T08:31:25.298Z,76.65
2023-02-28T08:32:30.161Z,76.65
2023-02-28T08:33:46.180Z,75.98
2023-02-28T08:34:25.152Z,76.27
2023-02-28T08:35:25.169Z,76.36
2023-02-28T08:36:25.108Z,76.27
2023-02-28T08:37:25.036Z,76.27
2023-02-28T08:38:24.984Z,76.17
2023-02-28T08:39:45.950Z,75.89
2023-02-28T08:40:24.960Z,75.98
2023-02-28T08:41:24.853Z,75.98
2023-02-28T08:42:24.845Z,76.17
2023-02-28T08:43:24.770Z,76.27
2023-02-28T08:44:24.734Z,75.60
2023-02-28T08:45:45.710Z,74.85
2023-02-28T08:46:24.656Z,73.99
2023-02-28T08:47:24.618Z,74.18
2023-02-28T08:48:24.569Z,73.99
2023-02-28T08:49:24.526Z,74.37
2023-02-28T08:50:24.496Z,74.47
2023-02-28T08:51:45.449Z,74.37
2023-02-28T08:52:24.411Z,73.90
2023-02-28T08:53:24.381Z,73.71
2023-02-28T08:54:24.330Z,73.71
2023-02-28T08:55:24.294Z,73.90
2023-02-28T08:56:24.246Z,73.99
2023-02-28T08:57:45.196Z,73.80
2023-02-28T08:58:24.158Z,73.14
2023-02-28T08:59:24.127Z,72.48
2023-02-28T09:00:24.080Z,72.10
2023-02-28T09:01:24.120Z,71.91
2023-02-28T09:02:23.994Z,71.62
2023-02-28T09:03:45.033Z,71.34
2023-02-28T09:04:25.424Z,71.25
2023-02-28T09:05:23.885Z,71.44
2023-02-28T09:06:23.843Z,71.81
2023-02-28T09:07:23.798Z,71.44
2023-02-28T09:08:23.775Z,71.91
2023-02-28T09:09:44.725Z,71.91
2023-02-28T09:10:23.704Z,71.85
2023-02-28T09:11:23.655Z,72.04
2023-02-28T09:12:23.674Z,71.47
2023-02-28T09:13:23.558Z,71.38
2023-02-28T09:14:23.552Z,70.72
2023-02-28T09:15:44.476Z,71.00
2023-02-28T09:16:23.456Z,70.34
2023-02-28T09:17:23.406Z,70.72
2023-02-28T09:18:23.360Z,71.47
2023-02-28T09:19:23.356Z,70.53
2023-02-28T09:20:23.307Z,70.43
2023-02-28T09:21:44.264Z,70.53
2023-02-28T09:22:23.201Z,70.24
2023-02-28T09:23:23.221Z,69.86
2023-02-28T09:24:23.123Z,69.96
2023-02-28T09:25:23.082Z,70.72
2023-02-28T09:26:23.037Z,70.62
2023-02-28T09:27:44.016Z,70.81
2023-02-28T09:28:22.991Z,70.43
2023-02-28T09:29:22.927Z,69.57
2023-02-28T09:30:22.904Z,70.05
2023-02-28T09:31:22.852Z,69.77
2023-02-28T09:32:22.873Z,70.34
2023-02-28T09:33:43.766Z,68.63
2023-02-28T09:34:22.771Z,68.73
2023-02-28T09:35:22.697Z,68.15
2023-02-28T09:36:23.443Z,68.25
2023-02-28T09:37:22.606Z,68.35
2023-02-28T09:38:22.567Z,68.63
2023-02-28T09:39:43.522Z,69.10
2023-02-28T09:40:22.582Z,68.35
2023-02-28T09:41:22.438Z,68.35
2023-02-28T09:42:22.434Z,68.35
2023-02-28T09:43:22.382Z,68.54
2023-02-28T09:44:22.321Z,68.35
2023-02-28T09:45:43.284Z,68.35
2023-02-28T09:46:22.293Z,68.82
2023-02-28T09:47:22.208Z,69.23
2023-02-28T09:48:22.187Z,69.04
2023-02-28T09:49:22.128Z,68.57
2023-02-28T09:50:22.083Z,69.04
2023-02-28T09:51:43.061Z,68.95
2023-02-28T09:52:22.015Z,68.85
2023-02-28T09:53:21.961Z,68.48
2023-02-28T09:54:23.096Z,67.62
2023-02-28T09:55:22.280Z,67.02
2023-02-28T09:56:22.340Z,66.86
2023-02-28T09:57:42.814Z,67.33
2023-02-28T09:58:21.773Z,66.86
2023-02-28T09:59:21.746Z,67.62
2023-02-28T10:00:21.701Z,67.24
2023-02-28T10:01:21.745Z,67.81
2023-02-28T10:02:21.631Z,67.62
2023-02-28T10:03:42.572Z,66.86
2023-02-28T10:04:21.553Z,66.67
2023-02-28T10:05:21.508Z,66.67
2023-02-28T10:06:21.460Z,66.20
2023-02-28T10:07:21.404Z,66.10
2023-02-28T10:08:21.381Z,66.01
2023-02-28T10:09:42.335Z,66.01
2023-02-28T10:10:21.349Z,65.91
2023-02-28T10:11:21.252Z,66.29
2023-02-28T10:12:21.220Z,66.77
2023-02-28T10:13:21.178Z,66.29
2023-02-28T10:14:21.133Z,65.91
2023-02-28T10:15:42.108Z,66.10
2023-02-28T10:16:21.059Z,65.82
2023-02-28T10:17:21.029Z,65.28
2023-02-28T10:18:20.983Z,64.62
2023-02-28T10:19:20.936Z,64.14
2023-02-28T10:20:21.111Z,64.52
2023-02-28T10:21:41.867Z,64.43
2023-02-28T10:22:20.830Z,64.90
2023-02-28T10:23:20.793Z,64.62
2023-02-28T10:24:20.762Z,63.95
2023-02-28T10:25:20.729Z,63.98
2023-02-28T10:26:20.685Z,63.98
2023-02-28T10:27:41.639Z,64.94
2023-02-28T10:28:20.665Z,64.46
2023-02-28T10:29:20.583Z,64.65
2023-02-28T10:30:20.565Z,63.92
2023-02-28T10:31:20.531Z,63.42
2023-02-28T10:32:20.527Z,63.04
2023-02-28T10:33:41.411Z,63.17
2023-02-28T10:34:20.375Z,62.59
2023-02-28T10:35:20.349Z,63.35
2023-02-28T10:36:20.398Z,62.40
2023-02-28T10:37:20.270Z,62.05
2023-02-28T10:38:20.236Z,61.77
2023-02-28T10:39:41.197Z,61.29
2023-02-28T10:40:20.185Z,60.35
2023-02-28T10:41:20.117Z,59.87
2023-02-28T10:42:20.096Z,60.82
2023-02-28T10:43:20.066Z,60.63
2023-02-28T10:44:20.020Z,59.68
2023-02-28T10:45:40.978Z,59.77
2023-02-28T10:46:19.972Z,59.20
2023-02-28T10:47:19.918Z,59.49
2023-02-28T10:48:19.868Z,59.39
2023-02-28T10:49:19.835Z,59.58
2023-02-28T10:50:19.828Z,59.30
2023-02-28T10:51:40.786Z,59.05
2023-02-28T10:52:19.726Z,59.52
2023-02-28T10:53:19.692Z,59.42
2023-02-28T10:54:19.661Z,60.09
2023-02-28T10:55:19.623Z,59.33
2023-02-28T10:56:19.606Z,58.88
2023-02-28T10:57:40.582Z,58.00
2023-02-28T10:58:19.530Z,57.43
2023-02-28T10:59:19.486Z,57.33
2023-02-28T11:00:19.476Z,57.52
2023-02-28T11:01:19.432Z,58.18
2023-02-28T11:02:19.485Z,58.28
2023-02-28T11:03:40.350Z,58.79
2023-02-28T11:04:19.341Z,58.76
2023-02-28T11:05:19.274Z,58.37
2023-02-28T11:06:19.260Z,58.40
2023-02-28T11:07:20.704Z,58.03
2023-02-28T11:08:19.190Z,58.03
2023-02-28T11:09:40.194Z,57.74
2023-02-28T11:10:19.383Z,56.79
2023-02-28T11:11:19.083Z,56.88
2023-02-28T11:12:19.037Z,57.26
2023-02-28T11:13:18.998Z,56.79
2023-02-28T11:14:18.958Z,57.07
2023-02-28T11:15:39.974Z,56.98
2023-02-28T11:16:18.893Z,56.53
2023-02-28T11:17:18.861Z,57.01
2023-02-28T11:18:20.135Z,57.70
2023-02-28T11:19:19.311Z,56.85
2023-02-28T11:20:18.748Z,56.85
2023-02-28T11:21:39.707Z,56.37
2023-02-28T11:22:18.684Z,56.30
2023-02-28T11:23:18.660Z,56.02
2023-02-28T11:24:18.636Z,55.26
2023-02-28T11:25:18.576Z,55.13
2023-02-28T11:26:18.543Z,55.16
2023-02-28T11:27:39.508Z,56.11
2023-02-28T11:28:18.489Z,55.26
2023-02-28T11:29:18.463Z,56.04
2023-02-28T11:30:18.407Z,55.00
2023-02-28T11:31:18.447Z,54.71
2023-02-28T11:32:18.440Z,53.78
2023-02-28T11:33:39.299Z,53.31
2023-02-28T11:34:18.281Z,52.92
2023-02-28T11:35:18.586Z,52.26
2023-02-28T11:36:20.284Z,52.26
2023-02-28T11:37:18.175Z,51.97
2023-02-28T11:38:18.141Z,51.76
2023-02-28T11:39:39.107Z,52.36
2023-02-28T11:40:18.074Z,52.04
2023-02-28T11:41:18.042Z,52.26
2023-02-28T11:42:18.023Z,52.42
2023-02-28T11:43:17.988Z,52.04
2023-02-28T11:44:17.939Z,52.42
2023-02-28T11:45:38.918Z,52.36
2023-02-28T11:46:17.909Z,51.76
2023-02-28T11:47:17.848Z,52.45
2023-02-28T11:48:17.815Z,52.23
2023-02-28T11:49:17.774Z,52.04
2023-02-28T11:50:17.744Z,51.85
2023-02-28T11:51:38.705Z,52.14
2023-02-28T11:52:17.677Z,52.33
2023-02-28T11:53:17.640Z,52.52
2023-02-28T11:54:17.603Z,52.61
2023-02-28T11:55:17.585Z,53.50
2023-02-28T11:56:17.545Z,53.21
2023-02-28T11:57:38.499Z,53.59
2023-02-28T11:58:17.591Z,52.26
2023-02-28T11:59:17.444Z,52.07
2023-02-28T12:00:17.419Z,51.68
2023-02-28T12:01:17.403Z,51.21
2023-02-28T12:02:17.410Z,51.50
2023-02-28T12:03:38.323Z,51.28
2023-02-28T12:04:17.279Z,51.40
2023-02-28T12:05:17.241Z,51.18
2023-02-28T12:06:17.203Z,51.21
2023-02-28T12:07:17.186Z,51.12
2023-02-28T12:08:17.156Z,50.80
2023-02-28T12:09:38.112Z,50.99
2023-02-28T12:10:17.080Z,51.28
2023-02-28T12:11:17.063Z,52.71
2023-02-28T12:12:17.021Z,52.73
2023-02-28T12:13:17.001Z,52.92
2023-02-28T12:14:16.938Z,52.48
2023-02-28T12:15:37.941Z,52.67
2023-02-28T12:16:16.902Z,51.52
2023-02-28T12:17:16.843Z,51.07
2023-02-28T12:18:16.808Z,51.07
2023-02-28T12:19:16.789Z,50.40
2023-02-28T12:20:16.775Z,50.21
2023-02-28T12:21:37.705Z,50.59
2023-02-28T12:22:16.697Z,49.95
2023-02-28T12:23:16.646Z,49.38
2023-02-28T12:24:16.599Z,48.78
2023-02-28T12:25:16.573Z,49.23
2023-02-28T12:26:16.545Z,49.52
2023-02-28T12:27:37.510Z,50.12
2023-02-28T12:28:16.468Z,50.31
2023-02-28T12:29:16.436Z,49.80
2023-02-28T12:30:16.404Z,49.52
2023-02-28T12:31:16.436Z,49.62
2023-02-28T12:32:16.421Z,49.97
2023-02-28T12:33:37.292Z,50.35
2023-02-28T12:34:16.301Z,50.07
2023-02-28T12:35:16.259Z,50.07
2023-02-28T12:36:16.198Z,50.92
2023-02-28T12:37:16.162Z,51.33
2023-02-28T12:38:16.141Z,50.95
2023-02-28T12:39:48.594Z,50.40
2023-02-28T12:40:16.060Z,50.09
2023-02-28T12:41:16.030Z,49.71
2023-02-28T12:42:15.990Z,50.18
2023-02-28T12:43:15.974Z,50.57
2023-02-28T12:44:15.926Z,51.02
2023-02-28T12:45:36.935Z,51.33
2023-02-28T12:46:15.947Z,51.88
2023-02-28T12:47:15.818Z,51.12
2023-02-28T12:48:15.798Z,51.21
2023-02-28T12:49:15.756Z,51.78
2023-02-28T12:50:15.727Z,52.16
2023-02-28T12:51:36.690Z,52.26
2023-02-28T12:52:15.650Z,51.31